sensor_id;sensor_type;location;lat;lon;timestamp;temperature;humidity
12223;DHT22;6174;49.058;8.524;2023-01-10T05:02:33;6.50;99.90
12223;DHT22;6174;49.058;8.524;2023-01-10T05:05:00;6.40;99.90
12223;DHT22;6174;49.058;8.524;2023-01-10T05:07:26;6.50;99.90
12223;DHT22;6174;49.058;8.524;2023-01-10T05:09:53;6.50;99.90
12223;DHT22;6174;49.058;8.524;2023-01-10T05:12:20;6.50;99.90
12223;DHT22;6174;49.058;8.524;2023-01-10T05:14:46;6.40;99.90
12223;DHT22;6174;49.058;8.524;2023-01-10T05:17:13;6.50;99.90
12223;DHT22;6174;49.058;8.524;2023-01-10T05:19:41;6.60;99.90
12223;DHT22;6174;49.058;8.524;2023-01-10T05:22:08;6.50;99.90
12223;DHT22;6174;49.058;8.524;2023-01-10T05:24:35;6.50;99.90
12223;DHT22;6174;49.058;8.524;2023-01-10T05:27:02;6.50;99.90
12223;DHT22;6174;49.058;8.524;2023-01-10T05:29:28;6.50;99.90
12223;DHT22;6174;49.058;8.524;2023-01-10T05:31:55;6.40;99.90
12223;DHT22;6174;49.058;8.524;2023-01-10T05:34:22;6.50;99.90
12223;DHT22;6174;49.058;8.524;2023-01-10T05:36:50;6.50;99.90
12223;DHT22;6174;49.058;8.524;2023-01-10T05:39:17;6.50;99.90
12223;DHT22;6174;49.058;8.524;2023-01-10T05:41:43;6.50;99.90
12223;DHT22;6174;49.058;8.524;2023-01-10T05:44:10;6.60;99.90
12223;DHT22;6174;49.058;8.524;2023-01-10T05:46:37;6.60;99.90
12223;DHT22;6174;49.058;8.524;2023-01-10T05:49:04;6.50;99.90
12223;DHT22;6174;49.058;8.524;2023-01-10T05:51:30;6.50;99.90
12223;DHT22;6174;49.058;8.524;2023-01-10T05:53:58;6.60;99.90
12223;DHT22;6174;49.058;8.524;2023-01-10T05:56:25;6.60;99.90
12223;DHT22;6174;49.058;8.524;2023-01-10T05:58:53;6.60;99.90
12223;DHT22;6174;49.058;8.524;2023-01-10T06:01:20;6.70;99.90
12223;DHT22;6174;49.058;8.524;2023-01-10T06:03:47;6.60;99.90
12223;DHT22;6174;49.058;8.524;2023-01-10T06:06:13;6.50;99.90
12223;DHT22;6174;49.058;8.524;2023-01-10T06:08:40;6.60;99.90
12223;DHT22;6174;49.058;8.524;2023-01-10T06:11:08;6.50;99.90
12223;DHT22;6174;49.058;8.524;2023-01-10T06:13:35;6.60;99.90
12223;DHT22;6174;49.058;8.524;2023-01-10T06:16:02;6.60;99.90
12223;DHT22;6174;49.058;8.524;2023-01-10T06:18:29;6.60;99.90
12223;DHT22;6174;49.058;8.524;2023-01-10T06:20:56;6.60;99.90
12223;DHT22;6174;49.058;8.524;2023-01-10T06:23:22;6.60;99.90
12223;DHT22;6174;49.058;8.524;2023-01-10T06:25:49;6.70;99.90
12223;DHT22;6174;49.058;8.524;2023-01-10T06:28:17;6.60;99.90
12223;DHT22;6174;49.058;8.524;2023-01-10T06:30:44;6.60;99.90
12223;DHT22;6174;49.058;8.524;2023-01-10T06:33:11;6.60;99.90
12223;DHT22;6174;49.058;8.524;2023-01-10T06:35:38;6.60;99.90
12223;DHT22;6174;49.058;8.524;2023-01-10T06:38:05;6.60;99.90
12223;DHT22;6174;49.058;8.524;2023-01-10T06:40:31;6.60;99.90
12223;DHT22;6174;49.058;8.524;2023-01-10T06:42:58;6.60;99.90
12223;DHT22;6174;49.058;8.524;2023-01-10T06:45:26;6.60;99.90
12223;DHT22;6174;49.058;8.524;2023-01-10T06:47:53;6.60;99.90
12223;DHT22;6174;49.058;8.524;2023-01-10T06:50:20;6.60;99.90
12223;DHT22;6174;49.058;8.524;2023-01-10T06:52:54;6.60;99.90
12223;DHT22;6174;49.058;8.524;2023-01-10T06:55:21;6.60;99.90
12223;DHT22;6174;49.058;8.524;2023-01-10T06:57:47;6.60;99.90
12223;DHT22;6174;49.058;8.524;2023-01-10T07:00:15;6.60;99.90
12223;DHT22;6174;49.058;8.524;2023-01-10T07:02:43;6.60;99.90
12223;DHT22;6174;49.058;8.524;2023-01-10T07:05:10;6.60;99.90
12223;DHT22;6174;49.058;8.524;2023-01-10T07:08:21;6.60;99.90
12223;DHT22;6174;49.058;8.524;2023-01-10T07:10:51;6.60;99.90
12223;DHT22;6174;49.058;8.524;2023-01-10T07:13:17;6.50;99.90
12223;DHT22;6174;49.058;8.524;2023-01-10T07:15:44;6.50;99.90
12223;DHT22;6174;49.058;8.524;2023-01-10T07:18:12;6.50;99.90
12223;DHT22;6174;49.058;8.524;2023-01-10T07:20:39;6.50;99.90
12223;DHT22;6174;49.058;8.524;2023-01-10T07:23:06;6.40;99.90
12223;DHT22;6174;49.058;8.524;2023-01-10T07:25:32;6.40;99.90
12223;DHT22;6174;49.058;8.524;2023-01-10T07:27:59;6.40;99.90
12223;DHT22;6174;49.058;8.524;2023-01-10T07:30:26;6.40;99.90
12223;DHT22;6174;49.058;8.524;2023-01-10T07:32:53;6.40;99.90
12223;DHT22;6174;49.058;8.524;2023-01-10T07:35:22;6.50;99.90
12223;DHT22;6174;49.058;8.524;2023-01-10T07:37:49;6.50;99.90
12223;DHT22;6174;49.058;8.524;2023-01-10T07:40:16;6.50;99.90
12223;DHT22;6174;49.058;8.524;2023-01-10T07:42:43;6.50;99.90
12223;DHT22;6174;49.058;8.524;2023-01-10T07:45:10;6.50;99.90
12223;DHT22;6174;49.058;8.524;2023-01-10T07:47:37;6.60;99.90
12223;DHT22;6174;49.058;8.524;2023-01-10T07:50:04;6.50;99.90
12223;DHT22;6174;49.058;8.524;2023-01-10T07:52:33;6.50;99.90
12223;DHT22;6174;49.058;8.524;2023-01-10T07:55:00;6.40;99.90
12223;DHT22;6174;49.058;8.524;2023-01-10T07:57:26;6.40;99.90
12223;DHT22;6174;49.058;8.524;2023-01-10T07:59:53;6.40;99.90
12223;DHT22;6174;49.058;8.524;2023-01-10T08:02:20;6.30;99.90
12223;DHT22;6174;49.058;8.524;2023-01-10T08:04:47;6.50;99.90
12223;DHT22;6174;49.058;8.524;2023-01-10T08:07:14;6.40;99.90
12223;DHT22;6174;49.058;8.524;2023-01-10T08:09:42;6.40;99.90
12223;DHT22;6174;49.058;8.524;2023-01-10T08:12:08;6.40;99.90
12223;DHT22;6174;49.058;8.524;2023-01-10T08:14:35;6.50;99.90
12223;DHT22;6174;49.058;8.524;2023-01-10T08:17:02;6.70;99.90
12223;DHT22;6174;49.058;8.524;2023-01-10T08:19:29;6.60;99.90
12223;DHT22;6174;49.058;8.524;2023-01-10T08:21:55;6.60;99.90
12223;DHT22;6174;49.058;8.524;2023-01-10T08:24:22;6.60;99.90
12223;DHT22;6174;49.058;8.524;2023-01-10T08:26:50;6.50;99.90
12223;DHT22;6174;49.058;8.524;2023-01-10T08:29:17;6.60;99.90
12223;DHT22;6174;49.058;8.524;2023-01-10T08:31:44;6.60;99.90
12223;DHT22;6174;49.058;8.524;2023-01-10T08:34:12;6.70;99.90
12223;DHT22;6174;49.058;8.524;2023-01-10T08:36:38;6.70;99.90
12223;DHT22;6174;49.058;8.524;2023-01-10T08:39:05;6.70;99.90
12223;DHT22;6174;49.058;8.524;2023-01-10T08:41:32;6.60;99.90
12223;DHT22;6174;49.058;8.524;2023-01-10T08:44:00;6.70;99.90
12223;DHT22;6174;49.058;8.524;2023-01-10T08:46:27;6.70;99.90
12223;DHT22;6174;49.058;8.524;2023-01-10T08:48:53;6.70;99.90
12223;DHT22;6174;49.058;8.524;2023-01-10T08:51:20;6.70;99.90
12223;DHT22;6174;49.058;8.524;2023-01-10T08:53:47;6.70;99.90
12223;DHT22;6174;49.058;8.524;2023-01-10T08:56:14;6.70;99.90
12223;DHT22;6174;49.058;8.524;2023-01-10T08:58:41;6.70;99.90
12223;DHT22;6174;49.058;8.524;2023-01-10T09:01:09;6.70;99.90
12223;DHT22;6174;49.058;8.524;2023-01-10T09:03:38;6.80;99.90
12223;DHT22;6174;49.058;8.524;2023-01-10T09:06:05;6.80;99.90
12223;DHT22;6174;49.058;8.524;2023-01-10T09:08:32;6.80;99.90
12223;DHT22;6174;49.058;8.524;2023-01-10T09:10:59;6.90;99.90
12223;DHT22;6174;49.058;8.524;2023-01-10T09:13:26;6.90;99.90
12223;DHT22;6174;49.058;8.524;2023-01-10T09:15:53;6.90;99.90
12223;DHT22;6174;49.058;8.524;2023-01-10T09:18:22;6.90;99.90
12223;DHT22;6174;49.058;8.524;2023-01-10T09:20:50;7.00;99.90
12223;DHT22;6174;49.058;8.524;2023-01-10T09:23:19;7.00;99.90
12223;DHT22;6174;49.058;8.524;2023-01-10T09:25:47;7.10;99.90
12223;DHT22;6174;49.058;8.524;2023-01-10T09:28:14;7.10;99.90
12223;DHT22;6174;49.058;8.524;2023-01-10T09:30:41;7.10;99.90
12223;DHT22;6174;49.058;8.524;2023-01-10T09:33:09;7.10;99.90
12223;DHT22;6174;49.058;8.524;2023-01-10T09:35:38;7.10;99.90
12223;DHT22;6174;49.058;8.524;2023-01-10T09:38:09;7.10;99.90
12223;DHT22;6174;49.058;8.524;2023-01-10T09:40:51;7.10;99.90
12223;DHT22;6174;49.058;8.524;2023-01-10T09:43:30;7.10;99.90
12223;DHT22;6174;49.058;8.524;2023-01-10T09:46:05;7.10;99.90
12223;DHT22;6174;49.058;8.524;2023-01-10T09:48:40;7.10;99.90
12223;DHT22;6174;49.058;8.524;2023-01-10T09:51:23;7.20;99.90
12223;DHT22;6174;49.058;8.524;2023-01-10T09:53:56;7.10;99.90
12223;DHT22;6174;49.058;8.524;2023-01-10T09:56:24;7.20;99.90
12223;DHT22;6174;49.058;8.524;2023-01-10T09:58:51;7.30;99.90
12223;DHT22;6174;49.058;8.524;2023-01-10T10:01:22;7.30;99.90
12223;DHT22;6174;49.058;8.524;2023-01-10T10:03:57;8.20;99.90
12223;DHT22;6174;49.058;8.524;2023-01-10T10:06:27;7.30;99.90
12223;DHT22;6174;49.058;8.524;2023-01-10T10:08:56;7.30;99.90
12223;DHT22;6174;49.058;8.524;2023-01-10T10:11:36;7.30;99.90
12223;DHT22;6174;49.058;8.524;2023-01-10T10:14:11;7.30;99.90
12223;DHT22;6174;49.058;8.524;2023-01-10T10:16:54;7.40;99.90
12223;DHT22;6174;49.058;8.524;2023-01-10T10:19:32;7.30;99.90
12223;DHT22;6174;49.058;8.524;2023-01-10T10:22:07;7.30;99.90
12223;DHT22;6174;49.058;8.524;2023-01-10T10:24:45;7.40;99.90
12223;DHT22;6174;49.058;8.524;2023-01-10T10:27:21;7.30;99.90
12223;DHT22;6174;49.058;8.524;2023-01-10T10:30:14;8.40;99.90
12223;DHT22;6174;49.058;8.524;2023-01-10T10:33:02;7.40;99.90
12223;DHT22;6174;49.058;8.524;2023-01-10T10:35:34;7.40;99.90
12223;DHT22;6174;49.058;8.524;2023-01-10T10:38:08;7.30;99.90
12223;DHT22;6174;49.058;8.524;2023-01-10T10:40:38;7.40;99.90
12223;DHT22;6174;49.058;8.524;2023-01-10T10:43:14;7.40;99.90
12223;DHT22;6174;49.058;8.524;2023-01-10T10:45:47;7.40;99.90
12223;DHT22;6174;49.058;8.524;2023-01-10T10:48:20;7.40;99.90
12223;DHT22;6174;49.058;8.524;2023-01-10T10:51:01;7.40;99.90
12223;DHT22;6174;49.058;8.524;2023-01-10T10:53:32;7.40;99.90
12223;DHT22;6174;49.058;8.524;2023-01-10T10:55:59;7.30;99.90
12223;DHT22;6174;49.058;8.524;2023-01-10T10:58:27;7.30;99.90
12223;DHT22;6174;49.058;8.524;2023-01-10T11:00:55;7.30;99.90
12223;DHT22;6174;49.058;8.524;2023-01-10T11:03:30;7.40;99.90
12223;DHT22;6174;49.058;8.524;2023-01-10T11:05:59;7.40;99.90
12223;DHT22;6174;49.058;8.524;2023-01-10T11:08:29;7.50;99.90
12223;DHT22;6174;49.058;8.524;2023-01-10T11:11:15;7.40;99.90
12223;DHT22;6174;49.058;8.524;2023-01-10T11:13:46;8.30;99.90
12223;DHT22;6174;49.058;8.524;2023-01-10T11:16:36;7.60;99.90
12223;DHT22;6174;49.058;8.524;2023-01-10T11:19:21;7.50;99.90
12223;DHT22;6174;49.058;8.524;2023-01-10T11:22:04;7.60;99.90
12223;DHT22;6174;49.058;8.524;2023-01-10T11:24:49;7.60;99.90
12223;DHT22;6174;49.058;8.524;2023-01-10T11:27:25;7.60;99.90
12223;DHT22;6174;49.058;8.524;2023-01-10T11:29:56;7.70;99.90
12223;DHT22;6174;49.058;8.524;2023-01-10T11:32:29;7.80;99.90
12223;DHT22;6174;49.058;8.524;2023-01-10T11:34:58;7.70;99.90
12223;DHT22;6174;49.058;8.524;2023-01-10T11:37:33;7.80;99.90
12223;DHT22;6174;49.058;8.524;2023-01-10T11:40:19;7.80;99.90
12223;DHT22;6174;49.058;8.524;2023-01-10T11:42:50;7.80;99.90
12223;DHT22;6174;49.058;8.524;2023-01-10T11:45:30;8.80;99.90
12223;DHT22;6174;49.058;8.524;2023-01-10T11:48:19;7.80;99.90
12223;DHT22;6174;49.058;8.524;2023-01-10T11:50:59;7.80;99.90
12223;DHT22;6174;49.058;8.524;2023-01-10T11:53:39;8.40;99.90
12223;DHT22;6174;49.058;8.524;2023-01-10T11:56:10;7.90;99.90
12223;DHT22;6174;49.058;8.524;2023-01-10T11:58:44;9.00;99.90
12223;DHT22;6174;49.058;8.524;2023-01-10T12:01:37;8.10;99.90
12223;DHT22;6174;49.058;8.524;2023-01-10T12:05:05;8.10;99.90
12223;DHT22;6174;49.058;8.524;2023-01-10T12:10:17;8.20;99.90
12223;DHT22;6174;49.058;8.524;2023-01-10T12:11:29;8.20;99.90
12223;DHT22;6174;49.058;8.524;2023-01-10T12:13:57;9.10;99.90
12223;DHT22;6174;49.058;8.524;2023-01-10T12:20:20;7.70;99.90
12223;DHT22;6174;49.058;8.524;2023-01-10T12:28:49;8.50;99.90
12223;DHT22;6174;49.058;8.524;2023-01-10T12:34:44;8.30;99.90
12223;DHT22;6174;49.058;8.524;2023-01-10T12:37:36;8.30;99.90
12223;DHT22;6174;49.058;8.524;2023-01-10T12:40:48;8.90;99.90
12223;DHT22;6174;49.058;8.524;2023-01-10T12:43:39;8.10;99.90
12223;DHT22;6174;49.058;8.524;2023-01-10T12:46:31;8.20;99.90
12223;DHT22;6174;49.058;8.524;2023-01-10T12:49:02;8.50;99.90
12223;DHT22;6174;49.058;8.524;2023-01-10T12:51:37;8.30;99.90
12223;DHT22;6174;49.058;8.524;2023-01-10T12:54:27;8.40;99.90
12223;DHT22;6174;49.058;8.524;2023-01-10T12:59:40;8.50;99.90
12223;DHT22;6174;49.058;8.524;2023-01-10T13:00:50;8.60;99.90
12223;DHT22;6174;49.058;8.524;2023-01-10T13:10:14;8.90;99.90
12223;DHT22;6174;49.058;8.524;2023-01-10T13:13:00;8.60;99.90
12223;DHT22;6174;49.058;8.524;2023-01-10T13:19:04;8.60;99.90
12223;DHT22;6174;49.058;8.524;2023-01-10T13:21:47;8.50;99.90
12223;DHT22;6174;49.058;8.524;2023-01-10T13:24:22;8.60;99.90
12223;DHT22;6174;49.058;8.524;2023-01-10T13:32:58;8.60;99.90
12223;DHT22;6174;49.058;8.524;2023-01-10T13:35:40;8.80;99.90
12223;DHT22;6174;49.058;8.524;2023-01-10T13:38:19;8.70;99.80
12223;DHT22;6174;49.058;8.524;2023-01-10T13:40:59;8.70;99.90
12223;DHT22;6174;49.058;8.524;2023-01-10T13:43:57;9.30;99.90
12223;DHT22;6174;49.058;8.524;2023-01-10T13:46:35;9.10;99.90
12223;DHT22;6174;49.058;8.524;2023-01-10T13:49:54;9.20;99.50
12223;DHT22;6174;49.058;8.524;2023-01-10T13:52:45;9.60;99.50
12223;DHT22;6174;49.058;8.524;2023-01-10T13:55:24;8.60;99.80
12223;DHT22;6174;49.058;8.524;2023-01-10T13:57:57;8.60;98.80
12223;DHT22;6174;49.058;8.524;2023-01-10T14:00:45;8.90;98.40
12223;DHT22;6174;49.058;8.524;2023-01-10T14:03:54;8.60;98.40
12223;DHT22;6174;49.058;8.524;2023-01-10T14:07:29;8.60;98.20
12223;DHT22;6174;49.058;8.524;2023-01-10T14:10:19;9.00;98.10
12223;DHT22;6174;49.058;8.524;2023-01-10T14:12:50;9.40;98.00
12223;DHT22;6174;49.058;8.524;2023-01-10T15:50:54;8.20;99.90
12223;DHT22;6174;49.058;8.524;2023-01-10T16:08:24;8.00;99.90
12223;DHT22;6174;49.058;8.524;2023-01-10T16:10:53;8.00;99.70
12223;DHT22;6174;49.058;8.524;2023-01-10T16:13:45;8.00;99.10
12223;DHT22;6174;49.058;8.524;2023-01-10T16:16:15;8.00;98.10
12223;DHT22;6174;49.058;8.524;2023-01-10T16:18:43;8.00;98.40
12223;DHT22;6174;49.058;8.524;2023-01-10T16:21:10;8.00;98.20
12223;DHT22;6174;49.058;8.524;2023-01-10T16:23:42;7.90;98.40
12223;DHT22;6174;49.058;8.524;2023-01-10T16:26:10;7.90;98.40
12223;DHT22;6174;49.058;8.524;2023-01-10T16:28:37;8.00;98.30
12223;DHT22;6174;49.058;8.524;2023-01-10T16:31:04;7.90;98.10
12223;DHT22;6174;49.058;8.524;2023-01-10T16:33:31;8.00;97.70
12223;DHT22;6174;49.058;8.524;2023-01-10T16:35:59;7.90;97.90
12223;DHT22;6174;49.058;8.524;2023-01-10T16:38:27;7.90;97.90
12223;DHT22;6174;49.058;8.524;2023-01-10T16:40:58;7.90;98.90
12223;DHT22;6174;49.058;8.524;2023-01-10T16:43:25;7.80;98.70
12223;DHT22;6174;49.058;8.524;2023-01-10T16:45:54;7.80;98.70
12223;DHT22;6174;49.058;8.524;2023-01-10T16:48:25;7.70;98.20
12223;DHT22;6174;49.058;8.524;2023-01-10T16:50:53;7.70;98.20
12223;DHT22;6174;49.058;8.524;2023-01-10T16:53:20;7.70;98.70
12223;DHT22;6174;49.058;8.524;2023-01-10T16:55:48;7.70;98.30
12223;DHT22;6174;49.058;8.524;2023-01-10T16:58:18;7.70;98.90
12223;DHT22;6174;49.058;8.524;2023-01-10T17:00:47;7.70;99.00
12223;DHT22;6174;49.058;8.524;2023-01-10T17:03:17;7.70;99.00
12223;DHT22;6174;49.058;8.524;2023-01-10T17:05:46;7.70;98.40
12223;DHT22;6174;49.058;8.524;2023-01-10T17:08:17;7.70;98.90
12223;DHT22;6174;49.058;8.524;2023-01-10T17:10:45;7.70;98.40
12223;DHT22;6174;49.058;8.524;2023-01-10T17:13:13;7.70;98.30
12223;DHT22;6174;49.058;8.524;2023-01-10T17:15:44;7.70;98.00
12223;DHT22;6174;49.058;8.524;2023-01-10T17:18:11;7.70;97.90
12223;DHT22;6174;49.058;8.524;2023-01-10T17:20:37;7.70;97.80
12223;DHT22;6174;49.058;8.524;2023-01-10T17:23:04;7.70;97.90
12223;DHT22;6174;49.058;8.524;2023-01-10T17:25:31;7.70;98.10
12223;DHT22;6174;49.058;8.524;2023-01-10T17:27:57;7.70;97.90
12223;DHT22;6174;49.058;8.524;2023-01-10T17:30:24;7.70;98.40
12223;DHT22;6174;49.058;8.524;2023-01-10T17:32:52;7.60;98.40
12223;DHT22;6174;49.058;8.524;2023-01-10T17:35:19;7.60;98.70
12223;DHT22;6174;49.058;8.524;2023-01-10T17:37:51;7.60;99.00
12223;DHT22;6174;49.058;8.524;2023-01-10T17:40:18;7.50;99.20
12223;DHT22;6174;49.058;8.524;2023-01-10T17:42:44;7.50;99.40
12223;DHT22;6174;49.058;8.524;2023-01-10T17:45:11;7.50;99.90
12223;DHT22;6174;49.058;8.524;2023-01-10T17:47:38;7.50;99.90
12223;DHT22;6174;49.058;8.524;2023-01-10T17:50:06;7.50;99.80
12223;DHT22;6174;49.058;8.524;2023-01-10T17:52:33;7.40;99.80
12223;DHT22;6174;49.058;8.524;2023-01-10T17:55:00;7.40;99.90
12223;DHT22;6174;49.058;8.524;2023-01-10T17:57:27;7.40;99.90
12223;DHT22;6174;49.058;8.524;2023-01-10T17:59:54;7.40;99.90
12223;DHT22;6174;49.058;8.524;2023-01-10T18:02:21;7.40;99.90
12223;DHT22;6174;49.058;8.524;2023-01-10T18:04:48;7.40;99.90
12223;DHT22;6174;49.058;8.524;2023-01-10T18:07:16;7.40;99.90
12223;DHT22;6174;49.058;8.524;2023-01-10T18:09:42;7.40;99.90
12223;DHT22;6174;49.058;8.524;2023-01-10T18:12:09;7.30;99.90
12223;DHT22;6174;49.058;8.524;2023-01-10T18:14:36;7.30;99.90
12223;DHT22;6174;49.058;8.524;2023-01-10T18:17:04;7.30;99.90
12223;DHT22;6174;49.058;8.524;2023-01-10T18:19:33;7.20;99.90
12223;DHT22;6174;49.058;8.524;2023-01-10T18:22:01;7.30;99.90
12223;DHT22;6174;49.058;8.524;2023-01-10T18:24:51;7.20;99.90
12223;DHT22;6174;49.058;8.524;2023-01-10T18:27:18;7.30;99.90
12223;DHT22;6174;49.058;8.524;2023-01-10T18:29:45;7.20;99.90
12223;DHT22;6174;49.058;8.524;2023-01-10T18:32:12;7.20;99.90
12223;DHT22;6174;49.058;8.524;2023-01-10T18:34:38;7.20;99.90
12223;DHT22;6174;49.058;8.524;2023-01-10T18:37:05;7.20;99.90
12223;DHT22;6174;49.058;8.524;2023-01-10T18:39:32;7.20;99.90
12223;DHT22;6174;49.058;8.524;2023-01-10T18:42:00;7.20;99.90
12223;DHT22;6174;49.058;8.524;2023-01-10T18:44:27;7.20;99.90
12223;DHT22;6174;49.058;8.524;2023-01-10T18:46:54;7.20;99.90
12223;DHT22;6174;49.058;8.524;2023-01-10T18:49:20;7.20;99.90
12223;DHT22;6174;49.058;8.524;2023-01-10T18:51:47;7.10;99.90
12223;DHT22;6174;49.058;8.524;2023-01-10T18:54:14;7.10;99.90
12223;DHT22;6174;49.058;8.524;2023-01-10T18:56:40;7.10;99.90
12223;DHT22;6174;49.058;8.524;2023-01-10T18:59:09;7.10;99.90
12223;DHT22;6174;49.058;8.524;2023-01-10T19:01:35;7.20;99.90
12223;DHT22;6174;49.058;8.524;2023-01-10T19:04:02;7.10;99.90
12223;DHT22;6174;49.058;8.524;2023-01-10T19:06:29;7.10;99.90
12223;DHT22;6174;49.058;8.524;2023-01-10T19:08:56;7.70;99.90
12223;DHT22;6174;49.058;8.524;2023-01-10T19:11:23;7.10;99.90
12223;DHT22;6174;49.058;8.524;2023-01-10T19:13:51;7.10;99.90
12223;DHT22;6174;49.058;8.524;2023-01-10T19:16:21;7.50;99.90
12223;DHT22;6174;49.058;8.524;2023-01-10T19:18:50;7.60;99.90
12223;DHT22;6174;49.058;8.524;2023-01-10T19:21:18;8.30;99.90
12223;DHT22;6174;49.058;8.524;2023-01-10T19:23:47;7.30;99.90
12223;DHT22;6174;49.058;8.524;2023-01-10T19:26:14;7.30;99.90
12223;DHT22;6174;49.058;8.524;2023-01-10T19:28:42;7.30;99.90
12223;DHT22;6174;49.058;8.524;2023-01-10T19:31:13;7.30;99.90
12223;DHT22;6174;49.058;8.524;2023-01-10T19:33:41;7.40;99.90
12223;DHT22;6174;49.058;8.524;2023-01-10T19:36:09;7.40;99.90
12223;DHT22;6174;49.058;8.524;2023-01-10T19:38:36;7.40;99.90
12223;DHT22;6174;49.058;8.524;2023-01-10T19:41:02;7.40;99.90
12223;DHT22;6174;49.058;8.524;2023-01-10T19:43:29;7.50;99.90
12223;DHT22;6174;49.058;8.524;2023-01-10T19:45:58;7.50;99.90
12223;DHT22;6174;49.058;8.524;2023-01-10T19:48:25;7.50;99.90
12223;DHT22;6174;49.058;8.524;2023-01-10T19:50:53;7.50;99.90
12223;DHT22;6174;49.058;8.524;2023-01-10T19:53:19;7.50;99.90
12223;DHT22;6174;49.058;8.524;2023-01-10T19:55:58;7.50;99.90
12223;DHT22;6174;49.058;8.524;2023-01-10T19:58:26;7.40;99.90
12223;DHT22;6174;49.058;8.524;2023-01-10T20:00:53;7.40;99.90
12223;DHT22;6174;49.058;8.524;2023-01-10T20:03:19;7.40;99.90
12223;DHT22;6174;49.058;8.524;2023-01-10T20:05:46;7.40;99.90
12223;DHT22;6174;49.058;8.524;2023-01-10T20:08:14;7.40;99.90
12223;DHT22;6174;49.058;8.524;2023-01-10T20:10:42;7.30;99.90
12223;DHT22;6174;49.058;8.524;2023-01-10T20:13:08;7.30;99.90
12223;DHT22;6174;49.058;8.524;2023-01-10T20:15:35;7.30;99.90
12223;DHT22;6174;49.058;8.524;2023-01-10T20:18:02;7.30;99.90
12223;DHT22;6174;49.058;8.524;2023-01-10T20:20:29;7.30;99.90
12223;DHT22;6174;49.058;8.524;2023-01-10T20:22:56;7.30;99.90
12223;DHT22;6174;49.058;8.524;2023-01-10T20:25:24;7.30;99.90
12223;DHT22;6174;49.058;8.524;2023-01-10T20:27:51;7.30;99.90
12223;DHT22;6174;49.058;8.524;2023-01-10T20:30:18;7.30;99.90
12223;DHT22;6174;49.058;8.524;2023-01-10T20:32:45;7.30;99.90
12223;DHT22;6174;49.058;8.524;2023-01-10T20:35:11;7.20;99.90
12223;DHT22;6174;49.058;8.524;2023-01-10T20:37:38;7.20;99.90
12223;DHT22;6174;49.058;8.524;2023-01-10T20:40:06;7.20;99.90
12223;DHT22;6174;49.058;8.524;2023-01-10T20:42:35;7.20;99.90
12223;DHT22;6174;49.058;8.524;2023-01-10T20:45:02;7.20;99.90
12223;DHT22;6174;49.058;8.524;2023-01-10T20:47:29;7.20;99.90
12223;DHT22;6174;49.058;8.524;2023-01-10T20:49:57;7.10;99.90
12223;DHT22;6174;49.058;8.524;2023-01-10T20:52:24;7.20;99.90
12223;DHT22;6174;49.058;8.524;2023-01-10T20:54:51;7.20;99.90
12223;DHT22;6174;49.058;8.524;2023-01-10T20:57:18;7.20;99.90
12223;DHT22;6174;49.058;8.524;2023-01-10T20:59:46;7.20;99.90
12223;DHT22;6174;49.058;8.524;2023-01-10T21:02:13;7.20;99.90
12223;DHT22;6174;49.058;8.524;2023-01-10T21:04:40;7.20;99.90
12223;DHT22;6174;49.058;8.524;2023-01-10T21:07:06;7.30;99.90
12223;DHT22;6174;49.058;8.524;2023-01-10T21:09:33;7.30;99.90
12223;DHT22;6174;49.058;8.524;2023-01-10T21:12:00;7.50;99.90
12223;DHT22;6174;49.058;8.524;2023-01-10T21:14:27;7.60;99.90
12223;DHT22;6174;49.058;8.524;2023-01-10T21:16:55;7.70;99.90
12223;DHT22;6174;49.058;8.524;2023-01-10T21:19:23;7.80;99.90
12223;DHT22;6174;49.058;8.524;2023-01-10T21:21:49;7.90;99.90
12223;DHT22;6174;49.058;8.524;2023-01-10T21:24:17;8.00;99.90
12223;DHT22;6174;49.058;8.524;2023-01-10T21:26:47;8.00;99.90
12223;DHT22;6174;49.058;8.524;2023-01-10T21:29:14;8.10;99.90
12223;DHT22;6174;49.058;8.524;2023-01-10T21:31:40;8.10;99.90
12223;DHT22;6174;49.058;8.524;2023-01-10T21:34:08;8.10;99.90
12223;DHT22;6174;49.058;8.524;2023-01-10T21:36:35;8.10;99.90
12223;DHT22;6174;49.058;8.524;2023-01-10T21:39:02;8.10;99.90
12223;DHT22;6174;49.058;8.524;2023-01-10T21:41:29;8.10;99.90
12223;DHT22;6174;49.058;8.524;2023-01-10T21:44:10;8.10;99.90
12223;DHT22;6174;49.058;8.524;2023-01-10T21:46:36;8.00;99.90
12223;DHT22;6174;49.058;8.524;2023-01-10T21:49:05;8.00;99.90
12223;DHT22;6174;49.058;8.524;2023-01-10T21:51:33;8.00;99.90
12223;DHT22;6174;49.058;8.524;2023-01-10T21:54:00;7.90;99.90
12223;DHT22;6174;49.058;8.524;2023-01-10T21:56:27;7.90;99.90
12223;DHT22;6174;49.058;8.524;2023-01-10T21:58:53;7.90;99.90
12223;DHT22;6174;49.058;8.524;2023-01-10T22:01:20;7.90;99.90
12223;DHT22;6174;49.058;8.524;2023-01-10T22:03:47;7.90;99.90
12223;DHT22;6174;49.058;8.524;2023-01-10T22:06:14;7.90;99.90
12223;DHT22;6174;49.058;8.524;2023-01-10T22:08:42;7.80;99.90
12223;DHT22;6174;49.058;8.524;2023-01-10T22:11:09;7.70;99.90
12223;DHT22;6174;49.058;8.524;2023-01-10T22:13:36;7.60;99.90
12223;DHT22;6174;49.058;8.524;2023-01-10T22:16:03;7.50;99.90
12223;DHT22;6174;49.058;8.524;2023-01-10T22:18:31;7.40;99.90
12223;DHT22;6174;49.058;8.524;2023-01-10T22:20:58;7.40;99.90
12223;DHT22;6174;49.058;8.524;2023-01-10T22:23:26;7.40;99.90
12223;DHT22;6174;49.058;8.524;2023-01-10T22:25:59;7.40;99.90
12223;DHT22;6174;49.058;8.524;2023-01-10T22:28:26;7.40;99.90
12223;DHT22;6174;49.058;8.524;2023-01-10T22:30:54;7.30;99.90
12223;DHT22;6174;49.058;8.524;2023-01-10T22:33:21;7.30;99.90
12223;DHT22;6174;49.058;8.524;2023-01-10T22:35:47;7.30;99.90
12223;DHT22;6174;49.058;8.524;2023-01-10T22:38:14;7.30;99.90
12223;DHT22;6174;49.058;8.524;2023-01-10T22:40:41;7.20;99.90
12223;DHT22;6174;49.058;8.524;2023-01-10T22:43:09;7.30;99.90
12223;DHT22;6174;49.058;8.524;2023-01-10T22:45:39;7.30;99.90
12223;DHT22;6174;49.058;8.524;2023-01-10T22:48:06;7.30;99.90
12223;DHT22;6174;49.058;8.524;2023-01-10T22:50:33;7.30;99.90
12223;DHT22;6174;49.058;8.524;2023-01-10T22:52:59;7.30;99.90
12223;DHT22;6174;49.058;8.524;2023-01-10T22:55:29;7.30;99.90
12223;DHT22;6174;49.058;8.524;2023-01-10T22:57:56;7.30;99.90
12223;DHT22;6174;49.058;8.524;2023-01-10T23:00:24;7.30;99.90
12223;DHT22;6174;49.058;8.524;2023-01-10T23:02:52;7.30;99.90
12223;DHT22;6174;49.058;8.524;2023-01-10T23:05:18;7.20;99.90
12223;DHT22;6174;49.058;8.524;2023-01-10T23:07:45;7.20;99.90
12223;DHT22;6174;49.058;8.524;2023-01-10T23:10:12;7.20;99.90
12223;DHT22;6174;49.058;8.524;2023-01-10T23:12:38;7.20;99.90
12223;DHT22;6174;49.058;8.524;2023-01-10T23:15:06;7.20;99.90
12223;DHT22;6174;49.058;8.524;2023-01-10T23:17:34;7.20;99.90
12223;DHT22;6174;49.058;8.524;2023-01-10T23:20:01;7.20;99.90
12223;DHT22;6174;49.058;8.524;2023-01-10T23:22:28;7.20;99.90
12223;DHT22;6174;49.058;8.524;2023-01-10T23:24:55;7.20;99.90
12223;DHT22;6174;49.058;8.524;2023-01-10T23:27:21;7.20;99.90
12223;DHT22;6174;49.058;8.524;2023-01-10T23:29:48;7.30;99.90
12223;DHT22;6174;49.058;8.524;2023-01-10T23:32:15;7.30;99.90
12223;DHT22;6174;49.058;8.524;2023-01-10T23:34:43;7.30;99.90
12223;DHT22;6174;49.058;8.524;2023-01-10T23:37:10;7.30;99.90
12223;DHT22;6174;49.058;8.524;2023-01-10T23:39:36;7.40;99.90
12223;DHT22;6174;49.058;8.524;2023-01-10T23:42:03;7.40;99.90
12223;DHT22;6174;49.058;8.524;2023-01-10T23:44:30;7.40;99.90
12223;DHT22;6174;49.058;8.524;2023-01-10T23:46:58;7.40;99.90